Parker, Colorado
Current Conditions -  °F | °C
As of 3:53 PM on Saturday 25 Oct 2014 (Local Time) from KAPA Reporting Station
Few Clouds Few Clouds  
Wind Chill: 76°   Ceiling: Unl
Heat Index: 76°   Visibility: 10mi
Dew Point: 19°   Wind: 14mph
Humidity: 12%   Direction: 150°SSE
Pressure: 30.11"   Gusts: NA
Location:  39.52°N, 104.76°W
Report Text: KAPA 252153Z 15012KT 10SM FEW020 24/M07 A3011 RMK AO2 SLP143 FU DSNT SE-SW FEW020 T02441072
Loading
Personal Weather Stations






























Interactive Weather Map
Tropical Storm Tracking
New forecast layout! Learn more

10-Day Weather Forecast

Advertisements
Track Severe Weather on mobile